createdAt,value
2022-08-11T00:00:16.994Z,19.48
2022-08-11T00:03:43.432Z,19.45
2022-08-11T00:06:52.079Z,19.42
2022-08-11T00:09:58.459Z,19.40
2022-08-11T00:13:16.833Z,19.40
2022-08-11T00:16:34.033Z,19.38
2022-08-11T00:20:15.222Z,19.37
2022-08-11T00:22:58.739Z,19.37
2022-08-11T00:26:07.200Z,19.38
2022-08-11T00:29:12.299Z,19.39
2022-08-11T00:32:19.874Z,19.42
2022-08-11T00:35:55.152Z,19.44
2022-08-11T00:38:12.874Z,19.43
2022-08-11T00:41:37.972Z,19.44
2022-08-11T00:45:07.290Z,19.43
2022-08-11T00:48:44.789Z,19.43
2022-08-11T00:52:06.225Z,19.42
2022-08-11T00:55:57.019Z,19.40
2022-08-11T00:59:34.136Z,19.40
2022-08-11T01:02:42.052Z,19.39
2022-08-11T01:06:37.852Z,19.41
2022-08-11T01:10:28.067Z,19.43
2022-08-11T01:14:34.205Z,19.46
2022-08-11T01:18:00.101Z,19.46
2022-08-11T01:21:21.752Z,19.47
2022-08-11T01:24:47.925Z,19.48
2022-08-11T01:28:15.372Z,19.49
2022-08-11T01:32:18.088Z,19.49
2022-08-11T01:35:51.851Z,19.52
2022-08-11T01:39:55.180Z,19.52
2022-08-11T01:43:46.369Z,19.54
2022-08-11T01:47:53.437Z,19.56
2022-08-11T01:51:06.595Z,19.59
2022-08-11T01:54:19.880Z,19.53
2022-08-11T01:57:42.462Z,19.48
2022-08-11T02:00:52.652Z,19.46
2022-08-11T02:04:22.041Z,19.44
2022-08-11T02:07:38.272Z,19.40
2022-08-11T02:11:28.231Z,19.38
2022-08-11T02:15:04.611Z,19.38
2022-08-11T02:18:06.504Z,19.36
2022-08-11T02:21:27.418Z,19.36
2022-08-11T02:24:36.696Z,19.37
2022-08-11T02:27:54.590Z,19.39
2022-08-11T02:32:25.598Z,19.38
2022-08-11T02:35:28.996Z,19.38
2022-08-11T02:39:10.188Z,19.36
2022-08-11T02:42:38.574Z,19.36
2022-08-11T02:46:00.889Z,19.36
2022-08-11T02:49:31.038Z,19.40
2022-08-11T02:53:22.908Z,19.42
2022-08-11T02:56:53.435Z,19.45
2022-08-11T03:00:23.986Z,19.47
2022-08-11T03:03:52.063Z,19.51
2022-08-11T03:07:06.526Z,19.55
2022-08-11T03:10:48.497Z,19.55
2022-08-11T03:14:52.157Z,19.57
2022-08-11T03:18:49.368Z,19.60
2022-08-11T03:22:06.350Z,19.61
2022-08-11T03:25:18.791Z,19.62
2022-08-11T03:28:36.581Z,19.66
2022-08-11T03:31:47.370Z,19.69
2022-08-11T03:34:54.674Z,19.71
2022-08-11T03:38:16.061Z,19.75
2022-08-11T03:42:01.646Z,19.78
2022-08-11T03:45:11.247Z,19.83
2022-08-11T03:48:29.730Z,19.90
2022-08-11T03:51:52.105Z,19.98
2022-08-11T03:55:39.376Z,20.08
2022-08-11T03:59:24.782Z,20.16
2022-08-11T04:02:49.526Z,20.27
2022-08-11T04:06:36.817Z,20.41
2022-08-11T04:10:31.660Z,20.53
2022-08-11T04:14:07.570Z,20.66
2022-08-11T04:17:43.803Z,20.80
2022-08-11T04:21:15.844Z,20.92
2022-08-11T04:24:54.540Z,21.03
2022-08-11T04:28:49.694Z,21.15
2022-08-11T04:32:23.883Z,21.21
2022-08-11T04:36:16.162Z,21.21
2022-08-11T05:02:23.911Z,22.13
2022-08-11T05:06:05.061Z,22.17
2022-08-11T05:09:55.502Z,22.21
2022-08-11T05:13:32.511Z,22.29
2022-08-11T05:17:03.110Z,22.36
2022-08-11T05:20:27.801Z,22.39
2022-08-11T05:23:51.510Z,22.42
2022-08-11T05:27:20.762Z,22.48
2022-08-11T05:30:45.007Z,22.56
2022-08-11T05:34:22.905Z,22.69
2022-08-11T05:37:48.417Z,22.81
2022-08-11T05:41:21.662Z,22.96
2022-08-11T05:44:53.002Z,23.10
2022-08-11T05:48:20.526Z,23.23
2022-08-11T05:51:52.301Z,23.38
2022-08-11T05:55:09.015Z,23.48
2022-08-11T05:58:20.692Z,23.58
2022-08-11T06:01:32.580Z,23.69
2022-08-11T06:04:39.400Z,23.76
2022-08-11T06:07:48.810Z,23.84
2022-08-11T06:10:58.779Z,23.85
2022-08-11T06:14:06.088Z,23.87
2022-08-11T06:17:08.713Z,23.88
2022-08-11T06:20:25.236Z,23.95
2022-08-11T06:23:31.982Z,24.04
2022-08-11T06:26:55.119Z,24.15
2022-08-11T06:29:54.474Z,24.21
2022-08-11T06:36:52.150Z,24.23
2022-08-11T06:40:17.341Z,24.25
2022-08-11T06:43:41.994Z,24.26
2022-08-11T06:46:51.901Z,24.28
2022-08-11T06:50:20.346Z,24.33
2022-08-11T06:53:26.094Z,24.37
2022-08-11T07:00:23.389Z,24.40
2022-08-11T07:03:53.965Z,24.48
2022-08-11T07:07:51.594Z,24.56
2022-08-11T07:11:47.208Z,24.62
2022-08-11T07:15:12.661Z,24.70
2022-08-11T07:18:38.602Z,24.82
2022-08-11T07:22:04.253Z,24.85
2022-08-11T07:25:36.734Z,24.89
2022-08-11T07:29:01.507Z,24.89
2022-08-11T07:32:11.452Z,24.84
2022-08-11T07:35:29.877Z,24.80
2022-08-11T07:38:53.513Z,24.80
2022-08-11T07:42:01.080Z,24.81
2022-08-11T07:45:25.030Z,24.84
2022-08-11T07:48:49.706Z,24.89
2022-08-11T07:52:15.108Z,24.95
2022-08-11T07:55:50.161Z,25.05
2022-08-11T07:59:04.265Z,25.24
2022-08-11T08:02:23.303Z,25.41
2022-08-11T08:05:48.932Z,25.63
2022-08-11T08:09:13.423Z,25.88
2022-08-11T08:12:37.861Z,26.05
2022-08-11T08:16:00.650Z,26.12
2022-08-11T08:19:08.404Z,26.21
2022-08-11T08:22:38.012Z,26.39
2022-08-11T08:25:25.436Z,26.58
2022-08-11T08:28:33.495Z,26.72
2022-08-11T08:31:42.044Z,26.85
2022-08-11T08:34:54.806Z,26.85
2022-08-11T08:38:00.603Z,26.82
2022-08-11T08:41:13.151Z,26.77
2022-08-11T08:44:43.459Z,26.87
2022-08-11T08:47:42.678Z,26.95
2022-08-11T08:50:42.628Z,27.05
2022-08-11T08:53:56.440Z,27.13
2022-08-11T08:57:01.360Z,27.17
2022-08-11T09:00:07.212Z,27.13
2022-08-11T09:03:39.878Z,27.05
2022-08-11T09:06:27.392Z,26.92
2022-08-11T09:09:37.731Z,26.75
2022-08-11T09:12:50.991Z,26.53
2022-08-11T09:15:57.845Z,26.39
2022-08-11T09:19:03.592Z,26.37
2022-08-11T09:22:28.052Z,26.44
2022-08-11T09:25:52.559Z,26.54
2022-08-11T09:29:01.997Z,26.61
2022-08-11T09:32:07.882Z,26.75
2022-08-11T09:35:15.530Z,26.84
2022-08-11T09:38:39.825Z,26.95
2022-08-11T09:42:01.730Z,27.11
2022-08-11T09:45:00.930Z,27.26
2022-08-11T09:48:08.897Z,27.36
2022-08-11T09:51:15.445Z,27.45
2022-08-11T09:54:20.287Z,27.55
2022-08-11T09:57:44.028Z,27.63
2022-08-11T10:01:00.890Z,27.75
2022-08-11T10:04:08.996Z,27.85
2022-08-11T10:07:15.978Z,27.95
2022-08-11T10:10:22.859Z,27.99
2022-08-11T10:14:10.067Z,28.03
2022-08-11T10:17:19.014Z,27.96
2022-08-11T10:20:33.134Z,27.69
2022-08-11T10:24:05.574Z,27.63
2022-08-11T10:27:13.241Z,27.59
2022-08-11T10:30:42.446Z,27.56
2022-08-11T10:34:08.855Z,27.60
2022-08-11T10:37:16.000Z,27.67
2022-08-11T10:40:24.186Z,27.68
2022-08-11T10:44:02.498Z,27.64
2022-08-11T10:46:55.479Z,27.70
2022-08-11T10:50:20.496Z,27.79
2022-08-11T10:53:45.504Z,27.73
2022-08-11T10:57:12.620Z,27.71
2022-08-11T11:00:24.613Z,27.72
2022-08-11T11:03:47.200Z,27.84
2022-08-11T11:07:21.700Z,27.91
2022-08-11T11:10:29.920Z,27.91
2022-08-11T11:13:55.397Z,27.96
2022-08-11T11:17:22.492Z,28.02
2022-08-11T11:20:36.781Z,28.05
2022-08-11T11:24:03.519Z,28.04
2022-08-11T11:27:34.274Z,28.04
2022-08-11T11:30:41.231Z,28.04
2022-08-11T11:34:12.109Z,28.05
2022-08-11T11:37:12.886Z,28.10
2022-08-11T11:40:31.667Z,28.08
2022-08-11T11:43:36.880Z,28.05
2022-08-11T11:46:43.752Z,28.06
2022-08-11T11:49:51.422Z,28.04
2022-08-11T11:52:58.942Z,28.06
2022-08-11T11:56:08.175Z,28.11
2022-08-11T11:59:34.281Z,28.36
2022-08-11T12:02:41.827Z,28.89
2022-08-11T12:05:49.991Z,28.89
2022-08-11T12:08:56.300Z,28.98
2022-08-11T12:12:22.778Z,28.99
2022-08-11T12:16:04.280Z,28.99
2022-08-11T12:18:39.444Z,28.91
2022-08-11T12:21:45.316Z,28.95
2022-08-11T12:25:12.353Z,28.95
2022-08-11T12:28:20.063Z,28.85
2022-08-11T12:31:28.822Z,28.76
2022-08-11T12:34:35.458Z,28.64
2022-08-11T12:37:47.896Z,28.53
2022-08-11T12:41:15.856Z,28.41
2022-08-11T12:44:44.801Z,28.39
2022-08-11T12:48:59.026Z,28.38
2022-08-11T12:52:06.784Z,28.35
2022-08-11T12:55:17.008Z,28.34
2022-08-11T12:58:24.839Z,28.36
2022-08-11T13:01:48.253Z,28.32
2022-08-11T13:05:07.420Z,28.26
2022-08-11T13:08:16.865Z,28.24
2022-08-11T13:11:55.788Z,28.30
2022-08-11T13:14:48.776Z,28.30
2022-08-11T13:17:55.935Z,28.35
2022-08-11T13:21:09.991Z,28.44
2022-08-11T13:24:16.483Z,28.55
2022-08-11T13:27:22.104Z,28.63
2022-08-11T13:30:48.458Z,28.69
2022-08-11T13:37:14.351Z,28.70
2022-08-11T13:40:33.155Z,28.66
2022-08-11T13:43:31.375Z,28.66
2022-08-11T13:46:38.302Z,28.63
2022-08-11T13:49:50.513Z,28.62
2022-08-11T13:52:58.270Z,28.63
2022-08-11T13:56:05.650Z,28.60
2022-08-11T13:59:13.232Z,28.61
2022-08-11T14:02:28.320Z,28.63
2022-08-11T14:05:36.320Z,28.63
2022-08-11T14:08:49.394Z,28.61
2022-08-11T14:12:23.488Z,28.59
2022-08-11T14:15:28.763Z,28.56
2022-08-11T14:18:43.512Z,28.53
2022-08-11T14:22:10.177Z,28.49
2022-08-11T14:25:16.106Z,28.41
2022-08-11T14:28:31.729Z,28.39
2022-08-11T14:31:32.848Z,28.37
2022-08-11T14:34:41.513Z,28.32
2022-08-11T14:37:49.157Z,28.24
2022-08-11T14:41:12.432Z,28.15
2022-08-11T14:44:36.687Z,28.10
2022-08-11T14:47:54.153Z,28.01
2022-08-11T14:50:59.408Z,27.94
2022-08-11T14:54:08.064Z,27.88
2022-08-11T14:57:16.868Z,27.86
2022-08-11T15:00:25.077Z,27.80
2022-08-11T15:03:31.188Z,27.73
2022-08-11T15:06:39.669Z,27.68
2022-08-11T15:10:11.757Z,27.62
2022-08-11T15:12:53.977Z,27.56
2022-08-11T15:16:18.761Z,27.49
2022-08-11T15:19:23.556Z,27.43
2022-08-11T15:22:47.609Z,27.35
2022-08-11T15:25:53.332Z,27.29
2022-08-11T15:29:23.544Z,27.25
2022-08-11T15:32:46.332Z,27.18
2022-08-11T15:36:10.318Z,27.11
2022-08-11T15:39:45.410Z,27.07
2022-08-11T15:43:14.473Z,27.04
2022-08-11T15:46:33.138Z,27.02
2022-08-11T15:50:11.533Z,27.03
2022-08-11T15:53:10.341Z,27.05
2022-08-11T15:56:15.583Z,27.03
2022-08-11T15:59:41.700Z,27.01
2022-08-11T16:02:56.718Z,26.98
2022-08-11T16:06:03.590Z,26.94
2022-08-11T16:09:17.990Z,26.90
2022-08-11T16:12:23.959Z,26.86
2022-08-11T16:15:46.149Z,26.85
2022-08-11T16:19:04.137Z,26.82
2022-08-11T16:22:14.006Z,26.81
2022-08-11T16:27:03.732Z,26.79
2022-08-11T16:28:28.213Z,26.77
2022-08-11T16:31:34.901Z,26.74
2022-08-11T16:34:59.166Z,26.71
2022-08-11T16:38:24.367Z,26.69
2022-08-11T16:41:52.301Z,26.63
2022-08-11T16:45:17.433Z,26.59
2022-08-11T16:48:33.413Z,26.55
2022-08-11T16:51:37.735Z,26.50
2022-08-11T16:54:47.306Z,26.41
2022-08-11T16:58:10.680Z,26.33
2022-08-11T17:01:16.163Z,26.26
2022-08-11T17:05:02.480Z,26.17
2022-08-11T17:08:26.740Z,26.10
2022-08-11T17:11:49.675Z,26.01
2022-08-11T17:15:10.040Z,25.92
2022-08-11T17:18:17.411Z,25.83
2022-08-11T17:21:34.143Z,25.74
2022-08-11T17:24:41.340Z,25.66
2022-08-11T17:27:46.321Z,25.57
2022-08-11T17:31:10.791Z,25.51
2022-08-11T17:34:34.645Z,25.45
2022-08-11T17:37:40.074Z,25.38
2022-08-11T17:40:49.778Z,25.32
2022-08-11T17:44:14.081Z,25.27
2022-08-11T17:47:37.937Z,25.18
2022-08-11T17:50:44.738Z,25.13
2022-08-11T17:54:23.865Z,25.08
2022-08-11T17:57:38.495Z,25.00
2022-08-11T18:00:47.186Z,24.94
2022-08-11T18:03:58.100Z,24.86
2022-08-11T18:07:03.223Z,24.80
2022-08-11T18:10:28.601Z,24.74
2022-08-11T18:13:56.366Z,24.67
2022-08-11T18:17:22.047Z,24.59
2022-08-11T18:20:44.988Z,24.52
2022-08-11T18:24:08.094Z,24.45
2022-08-11T18:27:34.161Z,24.39
2022-08-11T18:31:03.835Z,24.33
2022-08-11T18:34:29.409Z,24.28
2022-08-11T18:38:01.646Z,24.24
2022-08-11T18:41:24.263Z,24.20
2022-08-11T18:44:49.685Z,24.17
2022-08-11T18:48:14.930Z,24.14
2022-08-11T18:51:38.607Z,24.13
2022-08-11T18:55:02.235Z,24.12
2022-08-11T18:58:30.091Z,24.11
2022-08-11T19:01:54.596Z,24.11
2022-08-11T19:06:32.599Z,24.09
2022-08-11T19:08:45.950Z,24.09
2022-08-11T19:12:12.042Z,24.09
2022-08-11T19:15:38.522Z,24.10
2022-08-11T19:19:02.901Z,24.10
2022-08-11T19:22:29.713Z,24.08
2022-08-11T19:25:54.869Z,24.08
2022-08-11T19:30:07.194Z,24.07
2022-08-11T19:32:49.542Z,24.07
2022-08-11T19:36:15.015Z,24.06
2022-08-11T19:39:40.386Z,24.05
2022-08-11T19:43:11.181Z,24.04
2022-08-11T19:46:31.334Z,24.02
2022-08-11T19:49:54.398Z,24.00
2022-08-11T19:53:17.942Z,23.95
2022-08-11T19:56:42.086Z,23.90
2022-08-11T20:00:07.252Z,23.86
2022-08-11T20:03:31.869Z,23.81
2022-08-11T20:06:55.648Z,23.74
2022-08-11T20:10:21.378Z,23.71
2022-08-11T20:13:45.554Z,23.66
2022-08-11T20:17:10.034Z,23.59
2022-08-11T20:20:35.758Z,23.54
2022-08-11T20:24:04.264Z,23.49
2022-08-11T20:27:29.762Z,23.42
2022-08-11T20:30:52.737Z,23.38
2022-08-11T20:34:17.197Z,23.36
2022-08-11T20:37:42.004Z,23.32
2022-08-11T20:41:08.127Z,23.29
2022-08-11T20:44:33.975Z,23.25
2022-08-11T20:48:00.473Z,23.22
2022-08-11T20:51:25.631Z,23.19
2022-08-11T20:54:49.985Z,23.15
2022-08-11T20:58:17.727Z,23.12
2022-08-11T21:01:41.443Z,23.10
2022-08-11T21:05:06.269Z,23.08
2022-08-11T21:08:30.725Z,23.06
2022-08-11T21:11:56.239Z,23.05
2022-08-11T21:15:38.999Z,23.05
2022-08-11T21:18:45.451Z,23.03
2022-08-11T21:22:09.664Z,23.02
2022-08-11T21:25:33.909Z,23.02
2022-08-11T21:28:58.024Z,23.00
2022-08-11T21:32:25.147Z,22.99
2022-08-11T21:35:50.505Z,22.99
2022-08-11T21:39:14.853Z,23.00
2022-08-11T21:42:40.012Z,22.98
2022-08-11T21:46:03.435Z,22.97
2022-08-11T21:49:29.288Z,22.95
2022-08-11T21:52:54.483Z,22.92
2022-08-11T21:56:18.609Z,22.92
2022-08-11T21:59:44.166Z,22.89
2022-08-11T22:03:08.925Z,22.88
2022-08-11T22:06:33.262Z,22.85
2022-08-11T22:09:58.012Z,22.82
2022-08-11T22:13:25.008Z,22.81
2022-08-11T22:16:50.280Z,22.83
2022-08-11T22:20:14.296Z,22.81
2022-08-11T22:23:39.170Z,22.82
2022-08-11T22:27:03.285Z,22.80
2022-08-11T22:30:27.360Z,22.79
2022-08-11T22:34:02.114Z,22.78
2022-08-11T22:37:27.519Z,22.78
2022-08-11T22:40:43.054Z,22.76
2022-08-11T22:44:08.968Z,22.75
2022-08-11T22:47:40.335Z,22.74
2022-08-11T22:50:58.694Z,22.73
2022-08-11T22:54:24.866Z,22.74
2022-08-11T22:58:00.708Z,22.74
2022-08-11T23:01:16.229Z,22.73
2022-08-11T23:04:40.344Z,22.74
2022-08-11T23:08:05.711Z,22.74
2022-08-11T23:12:05.818Z,22.74
2022-08-11T23:14:54.961Z,22.76
2022-08-11T23:18:18.783Z,22.78
2022-08-11T23:21:44.781Z,22.80
2022-08-11T23:25:08.887Z,22.81
2022-08-11T23:28:34.362Z,22.83
2022-08-11T23:31:58.717Z,22.84
2022-08-11T23:35:40.178Z,22.86
2022-08-11T23:38:52.596Z,22.87
2022-08-11T23:42:17.338Z,22.89
2022-08-11T23:45:41.495Z,22.90
2022-08-11T23:49:06.657Z,22.92
2022-08-11T23:52:30.418Z,22.94
2022-08-11T23:55:54.109Z,22.96
2022-08-11T23:59:18.660Z,22.97
